Time;durP1;ratioP1;P1;durP2;ratioP2;P2;SDS_P1;SDS_P2;PMS_P1;PMS_P2;Temp;Humidity;BMP_temperature;BMP_pressure;BME280_temperature;BME280_humidity;BME280_pressure;Samples;Min_cycle;Max_cycle;Signal;HPM_P1;HPM_P2
2022/12/28 00:01:50;;;;;;;0.30;0.30;;;2.40;99.90;;;;;;5034966;28;20459;-80
2022/12/28 00:04:23;;;;;;;0.50;0.50;;;2.40;99.90;;;;;;5034475;28;20483;-80
2022/12/28 00:06:51;;;;;;;1.07;0.40;;;2.40;99.90;;;;;;5034589;28;20406;-80
2022/12/28 00:09:19;;;;;;;0.40;0.37;;;2.40;99.90;;;;;;5034824;28;20462;-81
2022/12/28 00:11:47;;;;;;;0.30;0.30;;;2.40;99.90;;;;;;5034516;28;20538;-80
2022/12/28 00:14:15;;;;;;;0.30;0.30;;;2.30;99.90;;;;;;5069786;28;20477;-81
2022/12/28 00:16:43;;;;;;;0.30;0.30;;;2.30;99.90;;;;;;5074340;28;20978;-80
2022/12/28 00:19:15;;;;;;;0.40;0.30;;;2.30;99.90;;;;;;5074246;28;20476;-80
2022/12/28 00:21:45;;;;;;;0.70;0.43;;;2.40;99.90;;;;;;5074273;28;20443;-80
2022/12/28 00:24:19;;;;;;;0.30;0.30;;;2.30;99.90;;;;;;5074003;28;20482;-80
2022/12/28 00:26:49;;;;;;;0.40;0.40;;;2.30;99.90;;;;;;5074516;28;20421;-80
2022/12/28 00:29:17;;;;;;;0.60;0.33;;;2.20;99.90;;;;;;5074030;28;20457;-80
2022/12/28 00:31:45;;;;;;;0.40;0.33;;;2.30;99.90;;;;;;5074327;28;20456;-80
2022/12/28 00:34:14;;;;;;;0.70;0.50;;;2.40;99.90;;;;;;5073847;28;20465;-80
2022/12/28 00:36:46;;;;;;;0.90;0.40;;;2.40;99.90;;;;;;5073872;28;20449;-80
2022/12/28 00:39:14;;;;;;;0.40;0.30;;;2.40;99.90;;;;;;5073916;28;20434;-80
2022/12/28 00:41:42;;;;;;;0.37;0.30;;;2.40;99.90;;;;;;5073799;28;20492;-80
2022/12/28 00:44:11;;;;;;;0.30;0.30;;;2.40;99.90;;;;;;5073945;28;20531;-80
2022/12/28 00:46:39;;;;;;;0.80;0.50;;;2.50;99.90;;;;;;5073697;28;20454;-80
2022/12/28 00:49:07;;;;;;;0.30;0.30;;;2.60;99.90;;;;;;5073721;28;20445;-80
2022/12/28 00:51:36;;;;;;;0.70;0.40;;;2.60;99.90;;;;;;5073604;28;20456;-80
2022/12/28 00:54:10;;;;;;;0.30;0.30;;;2.70;99.90;;;;;;5073522;28;20458;-80
2022/12/28 00:56:47;;;;;;;0.77;0.40;;;2.70;99.90;;;;;;5074135;28;20430;-80
2022/12/28 00:59:16;;;;;;;0.30;0.20;;;2.70;99.90;;;;;;5073508;28;20524;-81
2022/12/28 01:01:45;;;;;;;0.60;0.47;;;2.70;99.90;;;;;;5073492;28;20460;-80
2022/12/28 01:04:14;;;;;;;0.30;0.30;;;2.70;99.90;;;;;;5073317;28;20481;-81
2022/12/28 01:06:42;;;;;;;0.30;0.30;;;2.70;99.90;;;;;;5073449;28;20497;-80
2022/12/28 01:09:12;;;;;;;0.50;0.50;;;2.70;99.90;;;;;;5073381;28;20441;-80
2022/12/28 01:11:40;;;;;;;0.87;0.40;;;2.70;99.90;;;;;;5073394;28;20441;-80
2022/12/28 01:14:09;;;;;;;0.80;0.80;;;2.70;99.90;;;;;;5073097;28;20560;-80
2022/12/28 01:16:38;;;;;;;0.40;0.30;;;2.70;99.90;;;;;;5073675;28;20517;-80
2022/12/28 01:19:09;;;;;;;0.57;0.33;;;2.70;99.90;;;;;;5073194;28;20449;-81
2022/12/28 01:21:37;;;;;;;0.40;0.40;;;2.70;99.90;;;;;;5073280;28;20475;-81
2022/12/28 01:24:07;;;;;;;0.30;0.20;;;2.70;99.90;;;;;;5073062;28;20583;-80
2022/12/28 01:26:37;;;;;;;0.47;0.37;;;2.70;99.90;;;;;;5073482;28;20823;-81
2022/12/28 01:29:11;;;;;;;0.40;0.40;;;2.70;99.90;;;;;;5074175;28;20442;-80
2022/12/28 01:31:40;;;;;;;0.30;0.30;;;2.60;99.90;;;;;;5073133;28;20449;-81
2022/12/28 01:34:08;;;;;;;0.40;0.40;;;2.70;99.90;;;;;;5072359;28;20470;-80
2022/12/28 01:36:37;;;;;;;0.30;0.30;;;2.70;99.90;;;;;;5073052;28;20446;-80
2022/12/28 01:39:07;;;;;;;1.67;0.97;;;2.70;99.90;;;;;;5073352;28;20501;-80
2022/12/28 01:41:40;;;;;;;0.30;0.30;;;2.70;99.90;;;;;;5073155;28;20438;-81
2022/12/28 01:44:41;;;;;;;0.30;0.30;;;2.70;99.90;;;;;;5073223;28;20465;-81
2022/12/28 01:47:14;;;;;;;0.50;0.40;;;2.70;99.90;;;;;;5070762;28;20458;-81
2022/12/28 01:49:48;;;;;;;0.77;0.77;;;2.70;99.90;;;;;;5072952;28;20441;-81
2022/12/28 01:52:20;;;;;;;0.33;0.33;;;2.80;99.90;;;;;;5073301;28;20433;-80
2022/12/28 01:54:51;;;;;;;0.30;0.30;;;2.80;99.90;;;;;;5072867;28;20480;-80
2022/12/28 01:57:25;;;;;;;0.80;0.70;;;2.80;99.90;;;;;;5073240;28;20425;-80
2022/12/28 01:59:58;;;;;;;0.30;0.30;;;2.80;99.90;;;;;;5073221;28;20430;-80
2022/12/28 02:02:26;;;;;;;0.40;0.40;;;2.90;99.90;;;;;;5072875;28;20430;-80
2022/12/28 02:04:54;;;;;;;0.30;0.30;;;3.00;99.90;;;;;;5072654;28;20902;-81
2022/12/28 02:07:31;;;;;;;3.47;0.43;;;3.00;99.90;;;;;;5072724;28;20453;-81
2022/12/28 02:10:00;;;;;;;0.40;0.37;;;2.90;99.90;;;;;;5072803;28;20445;-81
2022/12/28 02:12:29;;;;;;;0.30;0.30;;;3.00;99.90;;;;;;5072468;28;20858;-81
2022/12/28 02:14:57;;;;;;;0.40;0.30;;;3.10;99.90;;;;;;5072511;28;20465;-80
2022/12/28 02:17:25;;;;;;;0.30;0.30;;;3.00;99.90;;;;;;5072723;28;20495;-81
2022/12/28 02:19:53;;;;;;;0.30;0.30;;;3.00;99.90;;;;;;5072669;28;20458;-80
2022/12/28 02:22:58;;;;;;;0.30;0.20;;;3.00;99.90;;;;;;5072909;28;20832;-80
2022/12/28 02:25:58;;;;;;;0.30;0.30;;;3.10;99.90;;;;;;5022697;28;20828;-81
2022/12/28 02:28:55;;;;;;;0.80;0.30;;;3.10;99.90;;;;;;5072592;28;20485;-80
2022/12/28 02:31:33;;;;;;;0.30;0.30;;;3.20;99.90;;;;;;5072561;28;20477;-81
2022/12/28 02:34:10;;;;;;;0.40;0.30;;;3.20;99.90;;;;;;5072483;28;20511;-80
2022/12/28 02:36:43;;;;;;;0.40;0.30;;;3.20;99.90;;;;;;5072521;28;20483;-80
2022/12/28 02:39:16;;;;;;;0.50;0.40;;;3.30;99.90;;;;;;5072558;28;20802;-81
2022/12/28 02:41:45;;;;;;;0.30;0.20;;;3.30;99.90;;;;;;5072810;28;20794;-80
2022/12/28 02:50:04;;;;;;;0.40;0.30;;;3.30;99.90;;;;;;5072540;28;20843;-81
2022/12/28 02:50:10;;;;;;;0.30;0.30;;;3.50;99.90;;;;;;5076416;28;20413;-81
2022/12/28 02:53:03;;;;;;;0.73;0.50;;;3.50;99.90;;;;;;5076068;28;20908;-80
2022/12/28 02:58:51;;;;;;;0.30;0.20;;;3.50;99.90;;;;;;5076298;28;20413;-80
2022/12/28 03:01:47;;;;;;;0.30;0.23;;;3.60;99.90;;;;;;5075833;28;20433;-80
2022/12/28 03:04:26;;;;;;;0.40;0.40;;;3.60;99.90;;;;;;5075609;28;20520;-80
2022/12/28 03:09:51;;;;;;;0.30;0.30;;;3.70;99.90;;;;;;5076100;28;20402;-80
2022/12/28 03:12:25;;;;;;;0.30;0.30;;;3.70;99.90;;;;;;5075465;28;20441;-80
2022/12/28 03:14:57;;;;;;;0.37;0.30;;;3.70;99.90;;;;;;5075562;28;20462;-80
2022/12/28 03:31:41;;;;;;;0.30;0.30;;;3.70;99.90;;;;;;5075463;28;21067;-80
2022/12/28 03:34:13;;;;;;;0.40;0.40;;;3.80;99.90;;;;;;5075180;28;20473;-80
2022/12/28 03:36:52;;;;;;;0.50;0.40;;;3.80;99.90;;;;;;5075187;28;20430;-81
2022/12/28 03:39:34;;;;;;;0.30;0.30;;;3.80;99.90;;;;;;5075468;28;20487;-80
2022/12/28 03:45:03;;;;;;;0.30;0.30;;;3.80;99.90;;;;;;5075043;28;20856;-80
2022/12/28 03:47:34;;;;;;;0.30;0.30;;;3.80;99.90;;;;;;5075002;28;20492;-80
2022/12/28 03:50:03;;;;;;;0.30;0.30;;;3.80;99.90;;;;;;5075002;28;20464;-80
2022/12/28 03:52:33;;;;;;;0.30;0.30;;;3.80;99.90;;;;;;5074847;28;20450;-80
2022/12/28 03:55:02;;;;;;;0.40;0.40;;;3.80;99.90;;;;;;5074744;28;20473;-80
2022/12/28 03:57:29;;;;;;;0.30;0.30;;;3.80;99.90;;;;;;5074102;28;20454;-80
2022/12/28 03:59:57;;;;;;;0.40;0.30;;;3.90;99.90;;;;;;5074729;28;20453;-81
2022/12/28 04:02:25;;;;;;;0.30;0.30;;;3.90;99.90;;;;;;5074635;28;20451;-81
2022/12/28 04:04:53;;;;;;;1.63;1.53;;;3.90;99.90;;;;;;5074431;28;20494;-81
2022/12/28 04:07:23;;;;;;;0.30;0.20;;;3.90;99.90;;;;;;5074552;28;20457;-80
2022/12/28 04:09:50;;;;;;;0.30;0.30;;;3.90;99.90;;;;;;5074536;28;20537;-80
2022/12/28 04:12:18;;;;;;;0.40;0.33;;;3.90;99.90;;;;;;5074229;28;20446;-81
2022/12/28 04:14:45;;;;;;;0.43;0.43;;;3.90;99.90;;;;;;5074333;28;20474;-81
2022/12/28 04:17:13;;;;;;;0.30;0.20;;;3.90;99.90;;;;;;5074377;28;20441;-81
2022/12/28 04:19:41;;;;;;;0.30;0.30;;;3.90;99.90;;;;;;5074232;28;20458;-81
2022/12/28 04:22:10;;;;;;;0.37;0.30;;;3.90;99.90;;;;;;5074244;28;20445;-80
2022/12/28 04:24:39;;;;;;;0.30;0.20;;;3.90;99.90;;;;;;5074068;28;20475;-80
2022/12/28 04:27:08;;;;;;;0.40;0.33;;;4.00;99.90;;;;;;5074185;28;20440;-81
2022/12/28 04:29:36;;;;;;;0.30;0.30;;;4.00;99.90;;;;;;5074405;28;20453;-81
2022/12/28 04:32:06;;;;;;;0.30;0.30;;;4.00;99.90;;;;;;5074043;28;20458;-80
2022/12/28 04:34:33;;;;;;;0.40;0.40;;;4.00;99.90;;;;;;5074208;28;20586;-80
2022/12/28 04:37:01;;;;;;;0.30;0.30;;;4.00;99.90;;;;;;5074250;28;20523;-81
2022/12/28 04:39:29;;;;;;;0.30;0.30;;;4.10;99.90;;;;;;5074233;28;20449;-80
2022/12/28 04:41:58;;;;;;;0.60;0.37;;;4.10;99.90;;;;;;5073868;28;20452;-80
2022/12/28 04:44:25;;;;;;;0.30;0.30;;;4.10;99.90;;;;;;5074043;28;20812;-80
2022/12/28 04:46:53;;;;;;;0.60;0.47;;;4.20;99.90;;;;;;5073965;28;20972;-81
2022/12/28 04:49:21;;;;;;;0.30;0.20;;;4.20;99.90;;;;;;5073685;28;20839;-81
2022/12/28 04:51:49;;;;;;;0.30;0.30;;;4.20;99.90;;;;;;5073649;28;20496;-81
2022/12/28 04:54:16;;;;;;;0.40;0.30;;;4.20;99.90;;;;;;5073613;28;20823;-81
2022/12/28 04:56:46;;;;;;;0.30;0.30;;;4.20;99.90;;;;;;5073554;28;20452;-81
2022/12/28 04:59:16;;;;;;;0.30;0.30;;;4.20;99.90;;;;;;5073536;28;20949;-81
2022/12/28 05:01:48;;;;;;;0.60;0.33;;;4.20;99.90;;;;;;5073479;28;20449;-81
2022/12/28 05:04:16;;;;;;;0.30;0.20;;;4.20;99.90;;;;;;5073490;28;20961;-81
2022/12/28 05:06:45;;;;;;;0.30;0.30;;;4.30;99.90;;;;;;5073667;28;20481;-81
2022/12/28 05:09:13;;;;;;;0.30;0.30;;;4.30;99.90;;;;;;5072461;28;20445;-81
2022/12/28 05:11:42;;;;;;;0.40;0.30;;;4.30;99.90;;;;;;5073359;28;20464;-81
2022/12/28 05:14:09;;;;;;;0.30;0.20;;;4.30;99.90;;;;;;5073085;28;20490;-80
2022/12/28 05:16:39;;;;;;;0.30;0.30;;;4.30;99.90;;;;;;5073298;28;20449;-81
2022/12/28 05:19:06;;;;;;;0.30;0.30;;;4.30;99.90;;;;;;5073285;28;20451;-81
2022/12/28 05:21:34;;;;;;;0.40;0.40;;;4.40;99.90;;;;;;5073239;28;20457;-80
2022/12/28 05:24:01;;;;;;;0.40;0.30;;;4.40;99.90;;;;;;5073433;28;20473;-80
2022/12/28 05:26:29;;;;;;;0.60;0.60;;;4.30;99.90;;;;;;5073130;28;20496;-80
2022/12/28 05:28:58;;;;;;;0.30;0.20;;;4.30;99.90;;;;;;5073331;28;20445;-81
2022/12/28 05:31:26;;;;;;;0.40;0.30;;;4.30;99.90;;;;;;5073089;28;20499;-80
2022/12/28 05:33:59;;;;;;;0.30;0.20;;;4.40;99.90;;;;;;5073019;28;20475;-80
2022/12/28 05:36:27;;;;;;;0.30;0.20;;;4.40;99.90;;;;;;5073143;28;20426;-80
2022/12/28 05:38:56;;;;;;;0.50;0.40;;;4.40;99.90;;;;;;5073029;28;20449;-80
2022/12/28 05:41:25;;;;;;;0.30;0.30;;;4.40;99.90;;;;;;5073328;28;20450;-81
2022/12/28 05:43:53;;;;;;;0.40;0.30;;;4.40;99.90;;;;;;5072911;28;20511;-81
2022/12/28 05:46:24;;;;;;;0.30;0.20;;;4.40;99.90;;;;;;5072851;28;20481;-81
2022/12/28 05:48:52;;;;;;;0.60;0.30;;;4.30;99.90;;;;;;5073034;28;20430;-79
2022/12/28 05:51:23;;;;;;;0.40;0.30;;;4.30;99.90;;;;;;5072946;28;20479;-80
2022/12/28 05:53:50;;;;;;;0.40;0.40;;;4.40;99.90;;;;;;5072622;28;20466;-80
2022/12/28 05:56:20;;;;;;;0.40;0.40;;;4.40;99.90;;;;;;5072883;28;20446;-80
2022/12/28 05:58:53;;;;;;;0.40;0.30;;;4.30;99.90;;;;;;5072869;28;20451;-80
2022/12/28 06:01:23;;;;;;;0.33;0.30;;;4.40;99.90;;;;;;5072835;28;20525;-80
2022/12/28 06:03:54;;;;;;;0.30;0.30;;;4.40;99.90;;;;;;5072751;28;20465;-80
2022/12/28 06:06:24;;;;;;;0.30;0.20;;;4.40;99.90;;;;;;5072748;28;20469;-80
2022/12/28 06:08:52;;;;;;;0.50;0.30;;;4.40;99.90;;;;;;5072785;28;20459;-80
2022/12/28 06:11:22;;;;;;;0.30;0.30;;;4.40;99.90;;;;;;5072741;28;20449;-80
2022/12/28 06:13:51;;;;;;;0.50;0.50;;;4.40;99.90;;;;;;5072401;28;20481;-80
2022/12/28 06:16:21;;;;;;;0.30;0.30;;;4.50;99.90;;;;;;5072903;28;20450;-80
2022/12/28 06:18:50;;;;;;;0.30;0.30;;;4.50;99.90;;;;;;5072652;28;20450;-80
2022/12/28 06:21:19;;;;;;;0.30;0.20;;;4.50;99.90;;;;;;5075798;28;20823;-80
2022/12/28 06:23:49;;;;;;;0.40;0.30;;;4.50;99.90;;;;;;5076492;28;20469;-80
2022/12/28 06:26:18;;;;;;;0.30;0.30;;;4.50;99.90;;;;;;5076426;28;20477;-80
2022/12/28 06:28:46;;;;;;;0.30;0.20;;;4.50;99.90;;;;;;5076435;28;20457;-80
2022/12/28 06:31:15;;;;;;;0.50;0.30;;;4.50;99.90;;;;;;5076391;28;20445;-80
2022/12/28 06:33:44;;;;;;;0.40;0.40;;;4.50;99.90;;;;;;5076264;28;20484;-80
2022/12/28 06:36:13;;;;;;;0.30;0.20;;;4.40;99.90;;;;;;5076291;28;20457;-80
2022/12/28 06:38:41;;;;;;;0.30;0.30;;;4.50;99.90;;;;;;5076269;28;20449;-80
2022/12/28 06:41:12;;;;;;;7.27;0.53;;;4.50;99.90;;;;;;5076218;28;20480;-80
2022/12/28 06:43:41;;;;;;;0.73;0.47;;;4.50;99.90;;;;;;5076080;28;20534;-80
2022/12/28 06:46:12;;;;;;;0.30;0.30;;;4.50;99.90;;;;;;5076343;28;20481;-80
2022/12/28 06:48:40;;;;;;;0.30;0.20;;;4.50;99.90;;;;;;5076396;28;20429;-80
2022/12/28 06:51:11;;;;;;;0.40;0.30;;;4.50;99.90;;;;;;5076328;28;20481;-80
2022/12/28 06:53:39;;;;;;;0.30;0.20;;;4.50;99.90;;;;;;5075879;28;20472;-80
2022/12/28 06:56:11;;;;;;;0.40;0.30;;;4.40;99.90;;;;;;5076265;28;20446;-80
2022/12/28 06:58:41;;;;;;;0.40;0.30;;;4.40;99.90;;;;;;5076272;28;20437;-80
2022/12/28 07:01:09;;;;;;;0.40;0.30;;;4.40;99.90;;;;;;5075814;28;20955;-80
2022/12/28 07:03:38;;;;;;;0.30;0.30;;;4.40;99.90;;;;;;5075727;28;20972;-80
2022/12/28 07:06:09;;;;;;;0.30;0.30;;;4.40;99.90;;;;;;5075642;28;21003;-80
2022/12/28 07:08:37;;;;;;;0.30;0.30;;;4.40;99.90;;;;;;5075708;28;20940;-80
2022/12/28 07:11:08;;;;;;;1.30;0.30;;;4.30;99.90;;;;;;5075636;28;20940;-80
2022/12/28 07:13:41;;;;;;;0.30;0.30;;;4.30;99.90;;;;;;5075378;28;20496;-80
2022/12/28 07:16:13;;;;;;;0.30;0.30;;;4.30;99.90;;;;;;5075594;28;20520;-80
2022/12/28 07:18:42;;;;;;;0.30;0.20;;;4.30;99.90;;;;;;5075484;28;20430;-80
2022/12/28 07:21:12;;;;;;;0.30;0.30;;;4.30;99.90;;;;;;5075445;28;20448;-80
2022/12/28 07:23:40;;;;;;;0.30;0.30;;;4.30;99.90;;;;;;5076509;28;20462;-80
2022/12/28 07:26:12;;;;;;;2.00;0.40;;;4.30;99.90;;;;;;5075319;28;20535;-80
2022/12/28 07:28:43;;;;;;;0.40;0.40;;;4.30;99.90;;;;;;5075369;28;20470;-79
2022/12/28 07:31:15;;;;;;;0.40;0.40;;;4.30;99.90;;;;;;5074784;28;20444;-80
2022/12/28 07:33:45;;;;;;;0.30;0.20;;;4.30;99.90;;;;;;5075415;28;20576;-80
2022/12/28 07:36:15;;;;;;;1.73;0.70;;;4.30;99.90;;;;;;5075484;28;20452;-80
2022/12/28 07:38:44;;;;;;;0.30;0.30;;;4.30;99.90;;;;;;5075143;28;20489;-80
2022/12/28 07:41:15;;;;;;;0.80;0.30;;;4.40;99.90;;;;;;5075205;28;20489;-80
2022/12/28 07:43:44;;;;;;;0.40;0.30;;;4.40;99.90;;;;;;5075206;28;20512;-80
2022/12/28 07:46:14;;;;;;;0.53;0.53;;;4.40;99.90;;;;;;5074881;28;20489;-80
2022/12/28 07:48:43;;;;;;;0.30;0.30;;;4.50;99.90;;;;;;5075238;28;20446;-80
2022/12/28 07:51:18;;;;;;;0.30;0.20;;;4.50;99.90;;;;;;5075375;28;20794;-80
2022/12/28 07:53:52;;;;;;;1.60;0.50;;;4.60;99.90;;;;;;5074742;28;20559;-79
2022/12/28 07:56:20;;;;;;;0.30;0.20;;;4.60;99.90;;;;;;5074885;28;20428;-80
2022/12/28 07:58:50;;;;;;;0.30;0.20;;;4.70;99.90;;;;;;5074805;28;20453;-80
2022/12/28 08:01:19;;;;;;;0.30;0.30;;;4.70;99.90;;;;;;5074899;28;20472;-79
2022/12/28 08:03:52;;;;;;;0.90;0.80;;;4.70;99.90;;;;;;5074904;28;20470;-79
2022/12/28 08:06:26;;;;;;;0.40;0.30;;;4.70;99.90;;;;;;5074600;28;20469;-80
2022/12/28 08:09:04;;;;;;;0.53;0.53;;;4.80;99.90;;;;;;5074612;28;20444;-80
2022/12/28 08:11:33;;;;;;;0.30;0.30;;;4.80;99.90;;;;;;5074599;28;20433;-80
2022/12/28 08:14:02;;;;;;;0.30;0.20;;;4.80;99.90;;;;;;5074428;28;20489;-80
2022/12/28 08:16:38;;;;;;;0.30;0.30;;;4.80;99.90;;;;;;5074455;28;20453;-80
2022/12/28 08:19:10;;;;;;;0.30;0.20;;;4.80;99.90;;;;;;5074321;28;20473;-80
2022/12/28 08:21:44;;;;;;;0.30;0.30;;;4.90;99.90;;;;;;5074293;28;20517;-80
2022/12/28 08:24:19;;;;;;;0.30;0.30;;;4.90;99.90;;;;;;5074340;28;20499;-80
2022/12/28 08:26:48;;;;;;;0.30;0.27;;;5.00;99.90;;;;;;5074482;28;20477;-80
2022/12/28 08:29:19;;;;;;;0.30;0.20;;;5.00;99.90;;;;;;5074254;28;20460;-80
2022/12/28 08:31:55;;;;;;;0.47;0.27;;;5.10;99.90;;;;;;5074022;28;20445;-80
2022/12/28 08:34:25;;;;;;;2.27;0.50;;;5.20;99.90;;;;;;5074273;28;20515;-80
2022/12/28 08:37:01;;;;;;;0.70;0.70;;;5.30;99.90;;;;;;5074055;28;20440;-80
2022/12/28 08:39:33;;;;;;;0.47;0.30;;;5.30;99.90;;;;;;5074361;28;20429;-80
2022/12/28 08:42:00;;;;;;;0.30;0.30;;;5.40;99.90;;;;;;5073912;28;20488;-80
2022/12/28 08:44:32;;;;;;;0.40;0.30;;;5.40;99.90;;;;;;5074034;28;20838;-80
2022/12/28 08:47:05;;;;;;;0.30;0.20;;;5.50;99.90;;;;;;5074055;28;20481;-79
2022/12/28 08:49:37;;;;;;;0.50;0.50;;;5.50;99.90;;;;;;5073935;28;20953;-80
2022/12/28 08:52:06;;;;;;;0.30;0.30;;;5.60;99.90;;;;;;5073720;28;20434;-80
2022/12/28 08:54:40;;;;;;;0.40;0.40;;;5.70;99.90;;;;;;5073832;28;20547;-79
2022/12/28 08:57:09;;;;;;;0.30;0.20;;;5.80;99.90;;;;;;5073924;28;20936;-80
2022/12/28 08:59:40;;;;;;;0.30;0.20;;;5.90;99.90;;;;;;5074162;28;20529;-80
2022/12/28 09:02:15;;;;;;;0.60;0.30;;;6.00;99.90;;;;;;5073856;28;20913;-80
2022/12/28 09:04:44;;;;;;;0.30;0.30;;;6.10;99.90;;;;;;5073701;28;21027;-80
2022/12/28 09:07:14;;;;;;;1.00;0.90;;;6.10;99.90;;;;;;5073628;28;20996;-79
2022/12/28 09:09:45;;;;;;;0.30;0.20;;;6.10;99.90;;;;;;5073442;28;20917;-79
2022/12/28 09:12:12;;;;;;;0.30;0.30;;;6.20;99.90;;;;;;5073199;28;20958;-80
2022/12/28 09:14:41;;;;;;;0.30;0.23;;;6.30;99.90;;;;;;5073370;28;20960;-79
2022/12/28 09:17:14;;;;;;;0.30;0.30;;;6.40;99.90;;;;;;5073341;28;20937;-79
2022/12/28 09:19:44;;;;;;;1.10;0.40;;;6.40;99.90;;;;;;5073334;28;20430;-79
2022/12/28 09:22:17;;;;;;;0.30;0.23;;;6.40;99.90;;;;;;5073516;28;20816;-79
2022/12/28 09:24:52;;;;;;;0.30;0.30;;;6.50;99.90;;;;;;5073154;28;20503;-80
2022/12/28 09:27:20;;;;;;;0.40;0.40;;;6.50;99.90;;;;;;5073144;28;20469;-79
2022/12/28 09:29:52;;;;;;;0.30;0.30;;;6.60;99.90;;;;;;5073189;28;20449;-80
2022/12/28 09:32:24;;;;;;;0.30;0.30;;;6.60;99.90;;;;;;5073168;28;20859;-80
2022/12/28 09:34:57;;;;;;;0.30;0.27;;;6.60;99.90;;;;;;5073056;28;20477;-79
2022/12/28 09:37:24;;;;;;;0.30;0.20;;;6.50;99.90;;;;;;5073134;28;20803;-80
2022/12/28 09:39:52;;;;;;;0.30;0.20;;;6.60;99.90;;;;;;5073353;28;20868;-80
2022/12/28 09:42:27;;;;;;;0.30;0.20;;;6.70;99.90;;;;;;5073250;28;20824;-80
2022/12/28 09:45:03;;;;;;;0.30;0.20;;;6.70;99.90;;;;;;5073213;28;20864;-80
2022/12/28 09:47:39;;;;;;;0.30;0.30;;;6.70;99.90;;;;;;5072905;28;20477;-80
2022/12/28 09:50:28;;;;;;;0.73;0.40;;;6.70;99.90;;;;;;5073728;28;20533;-80
2022/12/28 09:53:21;;;;;;;0.40;0.30;;;6.90;99.90;;;;;;5072898;28;20437;-80
2022/12/28 09:55:59;;;;;;;0.60;0.37;;;7.20;99.90;;;;;;5075594;28;20429;-81
2022/12/28 09:58:32;;;;;;;0.40;0.30;;;7.50;99.90;;;;;;5077935;28;20449;-81
2022/12/28 10:01:04;;;;;;;1.03;0.40;;;7.70;99.90;;;;;;5077180;28;20511;-80
2022/12/28 10:03:39;;;;;;;0.30;0.30;;;8.00;99.90;;;;;;5076939;28;20473;-80
2022/12/28 10:06:11;;;;;;;0.30;0.30;;;8.30;99.90;;;;;;5077232;28;20429;-81
2022/12/28 10:08:43;;;;;;;0.40;0.30;;;8.40;99.90;;;;;;5077180;28;20473;-81
2022/12/28 10:11:16;;;;;;;0.50;0.30;;;8.40;99.90;;;;;;5076890;28;20442;-81
2022/12/28 10:13:49;;;;;;;0.40;0.40;;;8.20;99.90;;;;;;5076585;28;20482;-81
2022/12/28 10:16:20;;;;;;;0.50;0.30;;;8.10;99.90;;;;;;5076739;28;20441;-80
2022/12/28 10:18:50;;;;;;;0.30;0.30;;;8.10;99.90;;;;;;5077220;28;20560;-85
2022/12/28 10:21:19;;;;;;;0.50;0.40;;;8.10;99.90;;;;;;5076789;28;20932;-80
2022/12/28 10:23:48;;;;;;;0.30;0.27;;;8.20;99.90;;;;;;5076516;28;20500;-80
2022/12/28 10:26:18;;;;;;;0.60;0.60;;;8.30;99.90;;;;;;5076876;28;20449;-79
2022/12/28 10:28:53;;;;;;;0.40;0.30;;;8.30;99.90;;;;;;5076531;28;20463;-80
2022/12/28 10:31:38;;;;;;;0.30;0.30;;;8.40;99.90;;;;;;5076551;28;20444;-80
2022/12/28 10:34:16;;;;;;;0.30;0.30;;;8.30;99.90;;;;;;5076285;28;20488;-80
2022/12/28 10:36:43;;;;;;;0.50;0.30;;;8.40;99.90;;;;;;5076678;28;20444;-80
2022/12/28 10:39:19;;;;;;;0.40;0.30;;;8.50;99.90;;;;;;5076249;28;20449;-80
2022/12/28 10:41:48;;;;;;;0.30;0.30;;;8.50;99.90;;;;;;5076616;28;20437;-80
2022/12/28 10:44:25;;;;;;;0.40;0.30;;;8.40;99.90;;;;;;5076137;28;20477;-79
2022/12/28 10:47:04;;;;;;;0.60;0.50;;;8.40;99.90;;;;;;5076376;28;20469;-80
2022/12/28 10:49:34;;;;;;;0.40;0.30;;;8.50;99.90;;;;;;5076483;28;20453;-81
2022/12/28 10:52:22;;;;;;;0.40;0.30;;;8.60;99.90;;;;;;5076362;28;20452;-80
2022/12/28 10:54:49;;;;;;;0.30;0.30;;;8.60;99.90;;;;;;5076016;28;20470;-80
2022/12/28 10:57:21;;;;;;;0.60;0.40;;;8.60;99.90;;;;;;5076125;28;20520;-80
2022/12/28 10:59:53;;;;;;;0.30;0.30;;;8.60;99.90;;;;;;5075943;28;20429;-80
2022/12/28 11:02:31;;;;;;;0.30;0.30;;;8.70;99.90;;;;;;5075824;28;20451;-80
2022/12/28 11:04:59;;;;;;;0.30;0.20;;;8.80;99.90;;;;;;5077067;28;20469;-84
2022/12/28 11:07:29;;;;;;;0.50;0.30;;;8.80;99.90;;;;;;5076661;28;21007;-85
2022/12/28 11:10:14;;;;;;;0.30;0.30;;;8.80;99.90;;;;;;5077263;28;20806;-84
2022/12/28 11:12:44;;;;;;;0.30;0.27;;;8.80;99.90;;;;;;5076569;28;20547;-85
2022/12/28 11:15:14;;;;;;;0.40;0.40;;;8.80;99.90;;;;;;5076029;28;20972;-85
2022/12/28 11:17:43;;;;;;;0.40;0.30;;;8.80;99.90;;;;;;5076620;28;20925;-84
2022/12/28 11:20:17;;;;;;;0.50;0.50;;;8.80;99.90;;;;;;5077108;28;20956;-84
2022/12/28 11:22:44;;;;;;;1.00;0.40;;;8.70;99.90;;;;;;5077315;28;20429;-84
2022/12/28 11:25:15;;;;;;;6.73;0.43;;;8.60;99.90;;;;;;5076821;28;20453;-84
2022/12/28 11:27:43;;;;;;;0.40;0.30;;;8.60;99.90;;;;;;5076611;28;20476;-84
2022/12/28 11:30:14;;;;;;;0.40;0.40;;;8.60;99.90;;;;;;5076345;28;20442;-84
2022/12/28 11:32:49;;;;;;;0.30;0.20;;;8.60;99.90;;;;;;5076601;28;20492;-84
2022/12/28 11:35:18;;;;;;;0.30;0.20;;;8.50;99.90;;;;;;5076300;28;20472;-84
2022/12/28 11:37:56;;;;;;;0.40;0.30;;;8.70;99.90;;;;;;5076451;28;20449;-85
2022/12/28 11:40:52;;;;;;;0.30;0.30;;;8.70;99.90;;;;;;5077426;28;20790;-84
2022/12/28 11:43:51;;;;;;;0.50;0.40;;;8.70;99.90;;;;;;5076605;28;20465;-85
2022/12/28 11:46:41;;;;;;;0.40;0.33;;;8.70;99.90;;;;;;5076185;28;20460;-84
2022/12/28 11:49:31;;;;;;;0.40;0.30;;;8.70;99.90;;;;;;5076529;28;20525;-85
2022/12/28 11:52:33;;;;;;;0.30;0.30;;;8.70;99.90;;;;;;5075806;28;20436;-85
2022/12/28 11:55:02;;;;;;;0.30;0.30;;;8.90;99.90;;;;;;5075312;28;20905;-85
2022/12/28 11:57:38;;;;;;;0.30;0.30;;;9.10;99.90;;;;;;5076013;28;20483;-85
2022/12/28 12:00:46;;;;;;;0.40;0.30;;;9.30;99.90;;;;;;5075204;28;20438;-85
2022/12/28 12:03:13;;;;;;;0.40;0.30;;;9.40;99.90;;;;;;5074707;28;20968;-84
2022/12/28 12:05:52;;;;;;;0.40;0.40;;;9.60;99.90;;;;;;5075109;28;20442;-84
2022/12/28 12:08:40;;;;;;;0.40;0.40;;;9.70;99.90;;;;;;5075021;28;21029;-84
2022/12/28 12:11:31;;;;;;;1.27;0.50;;;9.60;99.90;;;;;;5075581;28;20944;-84
2022/12/28 12:14:00;;;;;;;0.40;0.33;;;9.60;99.90;;;;;;5067448;28;20931;-84
2022/12/28 12:16:33;;;;;;;0.50;0.50;;;9.50;99.90;;;;;;5074814;28;20449;-84
2022/12/28 12:19:02;;;;;;;0.40;0.30;;;9.50;99.90;;;;;;5074761;28;20432;-85
2022/12/28 12:21:35;;;;;;;0.40;0.40;;;9.60;99.90;;;;;;5074833;28;20454;-84
2022/12/28 12:24:17;;;;;;;0.40;0.30;;;9.60;99.90;;;;;;5075088;28;20464;-84
2022/12/28 12:26:49;;;;;;;0.30;0.30;;;9.70;99.90;;;;;;5074470;28;20434;-85
2022/12/28 12:29:20;;;;;;;0.30;0.30;;;9.50;99.90;;;;;;5074478;28;20488;-85
2022/12/28 12:31:54;;;;;;;0.30;0.20;;;9.40;99.90;;;;;;5074131;28;20437;-84
2022/12/28 12:34:26;;;;;;;1.33;0.30;;;9.30;99.90;;;;;;5075492;28;20476;-85
2022/12/28 12:37:35;;;;;;;0.50;0.40;;;9.20;99.90;;;;;;5074470;28;20429;-85
2022/12/28 12:40:27;;;;;;;0.33;0.33;;;9.10;99.90;;;;;;5066600;28;20465;-84
2022/12/28 12:43:14;;;;;;;0.40;0.33;;;9.00;99.90;;;;;;5074464;28;20410;-85
2022/12/28 12:45:51;;;;;;;0.47;0.30;;;9.00;99.90;;;;;;5074385;28;20508;-84
2022/12/28 12:48:40;;;;;;;0.57;0.50;;;9.00;99.90;;;;;;5074175;28;20964;-85
2022/12/28 12:51:20;;;;;;;0.33;0.30;;;9.00;99.90;;;;;;5074150;28;20440;-85
2022/12/28 12:54:03;;;;;;;0.30;0.30;;;9.00;99.90;;;;;;5074173;28;20499;-84
2022/12/28 12:56:42;;;;;;;0.40;0.30;;;9.00;99.90;;;;;;5074108;28;20430;-85
2022/12/28 12:59:25;;;;;;;0.70;0.30;;;8.90;99.90;;;;;;5074279;28;20437;-84
2022/12/28 13:01:59;;;;;;;0.30;0.30;;;8.90;99.90;;;;;;5073998;28;20437;-84
2022/12/28 13:04:29;;;;;;;0.43;0.33;;;8.80;99.90;;;;;;5073598;28;20473;-84
2022/12/28 13:06:58;;;;;;;0.40;0.40;;;8.70;99.90;;;;;;5073847;28;20437;-84
2022/12/28 13:09:29;;;;;;;0.40;0.40;;;8.70;99.90;;;;;;5073713;28;20489;-84
2022/12/28 13:11:57;;;;;;;0.40;0.30;;;8.60;99.90;;;;;;5073830;28;20483;-84
2022/12/28 13:14:24;;;;;;;0.30;0.30;;;8.60;99.90;;;;;;5073467;28;20492;-84
2022/12/28 13:16:53;;;;;;;0.30;0.20;;;8.60;99.90;;;;;;5073774;28;20449;-84
2022/12/28 13:19:23;;;;;;;0.87;0.87;;;8.60;99.90;;;;;;5073607;28;20449;-84
2022/12/28 13:21:51;;;;;;;0.30;0.30;;;8.70;99.90;;;;;;5073964;28;20487;-84
2022/12/28 13:24:20;;;;;;;0.63;0.30;;;8.60;99.90;;;;;;5073237;28;20469;-84
2022/12/28 13:26:48;;;;;;;0.67;0.40;;;8.70;99.90;;;;;;5073582;28;20433;-85
2022/12/28 13:29:19;;;;;;;0.40;0.30;;;8.70;99.90;;;;;;5072753;28;20488;-84
2022/12/28 13:31:48;;;;;;;2.10;0.40;;;8.70;99.90;;;;;;5073644;28;20438;-84
2022/12/28 13:34:18;;;;;;;0.30;0.30;;;8.70;99.90;;;;;;5073418;28;20556;-84
2022/12/28 13:36:49;;;;;;;0.43;0.33;;;8.60;99.90;;;;;;5073488;28;20454;-84
2022/12/28 13:39:18;;;;;;;0.40;0.30;;;8.60;99.90;;;;;;5073576;28;20446;-84
2022/12/28 13:41:50;;;;;;;0.40;0.30;;;8.60;99.90;;;;;;5073239;28;20952;-85
2022/12/28 13:44:51;;;;;;;0.60;0.30;;;8.50;99.90;;;;;;5073373;28;20473;-85
2022/12/28 13:47:22;;;;;;;0.50;0.30;;;8.40;99.90;;;;;;5011491;28;20432;-85
2022/12/28 13:49:56;;;;;;;0.60;0.30;;;8.50;99.90;;;;;;5011693;28;20499;-84
2022/12/28 13:52:28;;;;;;;0.30;0.30;;;8.40;99.90;;;;;;5043990;28;20945;-84